sensor_id;sensor_type;location;lat;lon;timestamp;P1;durP1;ratioP1;P2;durP2;ratioP2
13564;SDS011;6854;48.096;11.278;2024-03-22T00:00:43;230.87;;;52.77;;
13564;SDS011;6854;48.096;11.278;2024-03-22T00:03:09;205.37;;;50.40;;
13564;SDS011;6854;48.096;11.278;2024-03-22T00:05:38;237.10;;;53.13;;
13564;SDS011;6854;48.096;11.278;2024-03-22T00:08:04;235.20;;;51.00;;
13564;SDS011;6854;48.096;11.278;2024-03-22T00:10:30;204.10;;;51.33;;
13564;SDS011;6854;48.096;11.278;2024-03-22T00:12:56;229.03;;;53.47;;
13564;SDS011;6854;48.096;11.278;2024-03-22T00:15:22;250.17;;;54.40;;
13564;SDS011;6854;48.096;11.278;2024-03-22T00:17:48;236.83;;;54.73;;
13564;SDS011;6854;48.096;11.278;2024-03-22T00:20:14;266.60;;;57.10;;
13564;SDS011;6854;48.096;11.278;2024-03-22T00:22:40;262.77;;;55.43;;
13564;SDS011;6854;48.096;11.278;2024-03-22T00:25:06;282.53;;;57.80;;
13564;SDS011;6854;48.096;11.278;2024-03-22T00:27:32;267.93;;;56.90;;
13564;SDS011;6854;48.096;11.278;2024-03-22T00:29:58;278.70;;;59.30;;
13564;SDS011;6854;48.096;11.278;2024-03-22T00:32:24;243.83;;;55.07;;
13564;SDS011;6854;48.096;11.278;2024-03-22T00:34:50;251.50;;;56.10;;
13564;SDS011;6854;48.096;11.278;2024-03-22T00:37:16;258.40;;;57.43;;
13564;SDS011;6854;48.096;11.278;2024-03-22T00:39:42;274.03;;;58.27;;
13564;SDS011;6854;48.096;11.278;2024-03-22T00:42:08;252.57;;;55.80;;
13564;SDS011;6854;48.096;11.278;2024-03-22T00:44:35;281.83;;;53.07;;
13564;SDS011;6854;48.096;11.278;2024-03-22T00:47:01;291.40;;;55.50;;
13564;SDS011;6854;48.096;11.278;2024-03-22T00:49:28;277.30;;;54.20;;
13564;SDS011;6854;48.096;11.278;2024-03-22T00:51:54;257.97;;;54.30;;
13564;SDS011;6854;48.096;11.278;2024-03-22T00:54:21;233.50;;;52.40;;
13564;SDS011;6854;48.096;11.278;2024-03-22T00:56:47;296.43;;;54.97;;
13564;SDS011;6854;48.096;11.278;2024-03-22T00:59:13;269.20;;;51.13;;
13564;SDS011;6854;48.096;11.278;2024-03-22T01:01:39;263.33;;;53.67;;
13564;SDS011;6854;48.096;11.278;2024-03-22T01:04:05;256.63;;;51.80;;
13564;SDS011;6854;48.096;11.278;2024-03-22T01:06:33;281.63;;;51.60;;
13564;SDS011;6854;48.096;11.278;2024-03-22T01:08:59;263.13;;;50.90;;
13564;SDS011;6854;48.096;11.278;2024-03-22T01:11:25;262.43;;;50.47;;
13564;SDS011;6854;48.096;11.278;2024-03-22T01:13:51;235.10;;;46.33;;
13564;SDS011;6854;48.096;11.278;2024-03-22T01:16:17;245.20;;;49.47;;
13564;SDS011;6854;48.096;11.278;2024-03-22T01:18:43;246.43;;;53.33;;
13564;SDS011;6854;48.096;11.278;2024-03-22T01:21:09;231.80;;;47.30;;
13564;SDS011;6854;48.096;11.278;2024-03-22T01:23:35;262.73;;;48.67;;
13564;SDS011;6854;48.096;11.278;2024-03-22T01:26:01;246.93;;;49.77;;
13564;SDS011;6854;48.096;11.278;2024-03-22T01:28:27;264.00;;;49.40;;
13564;SDS011;6854;48.096;11.278;2024-03-22T01:30:53;266.30;;;50.30;;
13564;SDS011;6854;48.096;11.278;2024-03-22T01:33:19;285.60;;;50.63;;
13564;SDS011;6854;48.096;11.278;2024-03-22T01:35:45;253.13;;;48.17;;
13564;SDS011;6854;48.096;11.278;2024-03-22T01:38:11;275.77;;;50.50;;
13564;SDS011;6854;48.096;11.278;2024-03-22T01:40:37;247.60;;;49.27;;
13564;SDS011;6854;48.096;11.278;2024-03-22T01:43:03;273.20;;;51.20;;
13564;SDS011;6854;48.096;11.278;2024-03-22T01:45:32;270.97;;;52.30;;
13564;SDS011;6854;48.096;11.278;2024-03-22T01:47:58;277.97;;;51.30;;
13564;SDS011;6854;48.096;11.278;2024-03-22T01:50:25;273.57;;;49.37;;
13564;SDS011;6854;48.096;11.278;2024-03-22T01:52:52;265.53;;;52.80;;
13564;SDS011;6854;48.096;11.278;2024-03-22T01:55:18;258.53;;;48.97;;
13564;SDS011;6854;48.096;11.278;2024-03-22T01:57:44;253.50;;;49.27;;
13564;SDS011;6854;48.096;11.278;2024-03-22T02:00:10;257.00;;;48.97;;
13564;SDS011;6854;48.096;11.278;2024-03-22T02:02:36;308.70;;;50.57;;
13564;SDS011;6854;48.096;11.278;2024-03-22T02:05:15;275.77;;;49.87;;
13564;SDS011;6854;48.096;11.278;2024-03-22T02:07:44;252.40;;;49.43;;
13564;SDS011;6854;48.096;11.278;2024-03-22T02:10:10;278.60;;;50.67;;
13564;SDS011;6854;48.096;11.278;2024-03-22T02:12:37;286.57;;;51.13;;
13564;SDS011;6854;48.096;11.278;2024-03-22T02:15:03;279.53;;;50.73;;
13564;SDS011;6854;48.096;11.278;2024-03-22T02:17:29;243.97;;;47.70;;
13564;SDS011;6854;48.096;11.278;2024-03-22T02:19:55;255.87;;;47.23;;
13564;SDS011;6854;48.096;11.278;2024-03-22T02:22:21;253.20;;;45.30;;
13564;SDS011;6854;48.096;11.278;2024-03-22T02:24:47;266.30;;;47.80;;
13564;SDS011;6854;48.096;11.278;2024-03-22T02:27:14;237.13;;;46.80;;
13564;SDS011;6854;48.096;11.278;2024-03-22T02:29:40;259.57;;;47.63;;
13564;SDS011;6854;48.096;11.278;2024-03-22T02:32:06;261.67;;;46.90;;
13564;SDS011;6854;48.096;11.278;2024-03-22T02:34:32;256.43;;;44.30;;
13564;SDS011;6854;48.096;11.278;2024-03-22T02:36:58;266.90;;;48.77;;
13564;SDS011;6854;48.096;11.278;2024-03-22T02:39:24;274.83;;;48.13;;
13564;SDS011;6854;48.096;11.278;2024-03-22T02:41:51;273.37;;;46.50;;
13564;SDS011;6854;48.096;11.278;2024-03-22T02:44:17;275.27;;;48.87;;
13564;SDS011;6854;48.096;11.278;2024-03-22T02:46:43;233.33;;;46.13;;
13564;SDS011;6854;48.096;11.278;2024-03-22T02:49:08;253.57;;;48.60;;
13564;SDS011;6854;48.096;11.278;2024-03-22T02:51:34;287.40;;;49.67;;
13564;SDS011;6854;48.096;11.278;2024-03-22T02:54:01;253.00;;;46.23;;
13564;SDS011;6854;48.096;11.278;2024-03-22T02:56:27;282.17;;;48.87;;
13564;SDS011;6854;48.096;11.278;2024-03-22T02:58:53;306.00;;;50.67;;
13564;SDS011;6854;48.096;11.278;2024-03-22T03:01:19;255.40;;;47.80;;
13564;SDS011;6854;48.096;11.278;2024-03-22T03:03:45;232.73;;;40.43;;
13564;SDS011;6854;48.096;11.278;2024-03-22T03:06:11;231.97;;;42.43;;
13564;SDS011;6854;48.096;11.278;2024-03-22T03:08:38;251.70;;;44.17;;
13564;SDS011;6854;48.096;11.278;2024-03-22T03:11:07;237.23;;;40.97;;
13564;SDS011;6854;48.096;11.278;2024-03-22T03:13:35;254.70;;;44.90;;
13564;SDS011;6854;48.096;11.278;2024-03-22T03:16:02;219.40;;;41.47;;
13564;SDS011;6854;48.096;11.278;2024-03-22T03:18:28;238.87;;;42.70;;
13564;SDS011;6854;48.096;11.278;2024-03-22T03:20:54;236.83;;;45.60;;
13564;SDS011;6854;48.096;11.278;2024-03-22T03:23:20;265.80;;;44.33;;
13564;SDS011;6854;48.096;11.278;2024-03-22T03:25:46;229.97;;;43.10;;
13564;SDS011;6854;48.096;11.278;2024-03-22T03:28:12;241.60;;;42.87;;
13564;SDS011;6854;48.096;11.278;2024-03-22T03:30:38;248.67;;;42.87;;
13564;SDS011;6854;48.096;11.278;2024-03-22T03:33:04;218.57;;;41.10;;
13564;SDS011;6854;48.096;11.278;2024-03-22T03:35:30;220.57;;;41.77;;
13564;SDS011;6854;48.096;11.278;2024-03-22T03:37:56;230.23;;;40.27;;
13564;SDS011;6854;48.096;11.278;2024-03-22T03:40:23;217.13;;;40.87;;
13564;SDS011;6854;48.096;11.278;2024-03-22T03:42:52;214.50;;;40.10;;
13564;SDS011;6854;48.096;11.278;2024-03-22T03:45:18;227.83;;;38.40;;
13564;SDS011;6854;48.096;11.278;2024-03-22T03:47:44;200.27;;;37.87;;
13564;SDS011;6854;48.096;11.278;2024-03-22T03:50:10;205.03;;;39.30;;
13564;SDS011;6854;48.096;11.278;2024-03-22T03:52:36;197.10;;;38.37;;
13564;SDS011;6854;48.096;11.278;2024-03-22T03:55:02;202.43;;;38.00;;
13564;SDS011;6854;48.096;11.278;2024-03-22T03:57:29;200.40;;;36.73;;
13564;SDS011;6854;48.096;11.278;2024-03-22T03:59:55;212.17;;;38.40;;
13564;SDS011;6854;48.096;11.278;2024-03-22T04:02:21;202.13;;;36.73;;
13564;SDS011;6854;48.096;11.278;2024-03-22T04:04:47;220.97;;;37.10;;
13564;SDS011;6854;48.096;11.278;2024-03-22T04:07:13;151.20;;;33.90;;
13564;SDS011;6854;48.096;11.278;2024-03-22T04:09:39;210.00;;;35.50;;
13564;SDS011;6854;48.096;11.278;2024-03-22T04:12:06;188.87;;;36.20;;
13564;SDS011;6854;48.096;11.278;2024-03-22T04:14:32;168.50;;;32.97;;
13564;SDS011;6854;48.096;11.278;2024-03-22T04:16:58;184.57;;;35.17;;
13564;SDS011;6854;48.096;11.278;2024-03-22T04:19:24;179.93;;;35.17;;
13564;SDS011;6854;48.096;11.278;2024-03-22T04:21:50;180.77;;;36.17;;
13564;SDS011;6854;48.096;11.278;2024-03-22T04:24:16;215.23;;;37.93;;
13564;SDS011;6854;48.096;11.278;2024-03-22T04:26:42;210.00;;;36.97;;
13564;SDS011;6854;48.096;11.278;2024-03-22T04:29:08;183.67;;;34.53;;
13564;SDS011;6854;48.096;11.278;2024-03-22T04:31:35;171.20;;;35.27;;
13564;SDS011;6854;48.096;11.278;2024-03-22T04:34:02;210.57;;;35.60;;
13564;SDS011;6854;48.096;11.278;2024-03-22T04:36:28;191.83;;;36.90;;
13564;SDS011;6854;48.096;11.278;2024-03-22T04:38:54;215.13;;;37.27;;
13564;SDS011;6854;48.096;11.278;2024-03-22T04:41:20;186.97;;;34.50;;
13564;SDS011;6854;48.096;11.278;2024-03-22T04:43:46;187.07;;;33.70;;
13564;SDS011;6854;48.096;11.278;2024-03-22T04:46:12;175.27;;;31.37;;
13564;SDS011;6854;48.096;11.278;2024-03-22T04:48:38;151.93;;;30.00;;
13564;SDS011;6854;48.096;11.278;2024-03-22T04:51:04;179.37;;;30.53;;
13564;SDS011;6854;48.096;11.278;2024-03-22T04:53:30;216.97;;;35.90;;
13564;SDS011;6854;48.096;11.278;2024-03-22T04:55:56;214.77;;;36.50;;
13564;SDS011;6854;48.096;11.278;2024-03-22T04:58:22;204.20;;;36.87;;
13564;SDS011;6854;48.096;11.278;2024-03-22T05:00:48;214.47;;;37.70;;
13564;SDS011;6854;48.096;11.278;2024-03-22T05:03:15;222.40;;;39.13;;
13564;SDS011;6854;48.096;11.278;2024-03-22T05:05:41;181.67;;;36.40;;
13564;SDS011;6854;48.096;11.278;2024-03-22T05:08:08;225.07;;;37.57;;
13564;SDS011;6854;48.096;11.278;2024-03-22T05:10:37;198.63;;;38.57;;
13564;SDS011;6854;48.096;11.278;2024-03-22T05:13:03;226.77;;;39.33;;
13564;SDS011;6854;48.096;11.278;2024-03-22T05:15:30;224.77;;;40.00;;
13564;SDS011;6854;48.096;11.278;2024-03-22T05:17:57;238.93;;;42.47;;
13564;SDS011;6854;48.096;11.278;2024-03-22T05:20:23;218.77;;;43.83;;
13564;SDS011;6854;48.096;11.278;2024-03-22T05:22:49;225.80;;;45.77;;
13564;SDS011;6854;48.096;11.278;2024-03-22T05:25:15;211.83;;;44.37;;
13564;SDS011;6854;48.096;11.278;2024-03-22T05:27:42;234.23;;;47.20;;
13564;SDS011;6854;48.096;11.278;2024-03-22T05:30:09;270.67;;;51.40;;
13564;SDS011;6854;48.096;11.278;2024-03-22T05:32:37;275.20;;;52.93;;
13564;SDS011;6854;48.096;11.278;2024-03-22T05:35:06;279.90;;;51.00;;
13564;SDS011;6854;48.096;11.278;2024-03-22T05:37:36;237.10;;;50.50;;
13564;SDS011;6854;48.096;11.278;2024-03-22T05:40:03;249.87;;;51.40;;
13564;SDS011;6854;48.096;11.278;2024-03-22T05:42:30;265.87;;;52.60;;
13564;SDS011;6854;48.096;11.278;2024-03-22T05:44:56;255.13;;;53.50;;
13564;SDS011;6854;48.096;11.278;2024-03-22T05:47:23;271.27;;;52.07;;
13564;SDS011;6854;48.096;11.278;2024-03-22T05:59:13;220.47;;;44.40;;
13564;SDS011;6854;48.096;11.278;2024-03-22T06:02:18;233.33;;;47.57;;
13564;SDS011;6854;48.096;11.278;2024-03-22T06:14:18;267.87;;;47.90;;
13564;SDS011;6854;48.096;11.278;2024-03-22T06:16:58;283.57;;;50.37;;
13564;SDS011;6854;48.096;11.278;2024-03-22T06:20:23;228.43;;;46.90;;
13564;SDS011;6854;48.096;11.278;2024-03-22T06:29:24;215.33;;;46.27;;
13564;SDS011;6854;48.096;11.278;2024-03-22T06:34:58;221.53;;;46.93;;
13564;SDS011;6854;48.096;11.278;2024-03-22T06:37:55;240.10;;;49.10;;
13564;SDS011;6854;48.096;11.278;2024-03-22T06:59:20;242.50;;;56.57;;
13564;SDS011;6854;48.096;11.278;2024-03-22T07:02:43;282.80;;;60.53;;
13564;SDS011;6854;48.096;11.278;2024-03-22T07:21:18;219.03;;;52.27;;
13564;SDS011;6854;48.096;11.278;2024-03-22T07:24:29;171.70;;;46.77;;
13564;SDS011;6854;48.096;11.278;2024-03-22T07:27:52;192.07;;;56.87;;
13564;SDS011;6854;48.096;11.278;2024-03-22T07:40:32;145.73;;;46.67;;
13564;SDS011;6854;48.096;11.278;2024-03-22T07:43:06;129.73;;;38.37;;
13564;SDS011;6854;48.096;11.278;2024-03-22T07:45:34;141.73;;;47.27;;
13564;SDS011;6854;48.096;11.278;2024-03-22T07:54:22;85.83;;;30.53;;
13564;SDS011;6854;48.096;11.278;2024-03-22T08:00:35;72.50;;;35.40;;
13564;SDS011;6854;48.096;11.278;2024-03-22T08:03:43;69.70;;;27.50;;
13564;SDS011;6854;48.096;11.278;2024-03-22T08:10:29;54.67;;;29.17;;
13564;SDS011;6854;48.096;11.278;2024-03-22T08:16:47;39.53;;;20.47;;
13564;SDS011;6854;48.096;11.278;2024-03-22T08:19:39;38.17;;;23.60;;
13564;SDS011;6854;48.096;11.278;2024-03-22T08:22:11;47.60;;;25.80;;
13564;SDS011;6854;48.096;11.278;2024-03-22T08:28:06;40.07;;;23.20;;
13564;SDS011;6854;48.096;11.278;2024-03-22T08:31:08;33.47;;;20.50;;
13564;SDS011;6854;48.096;11.278;2024-03-22T08:33:46;32.30;;;20.90;;
13564;SDS011;6854;48.096;11.278;2024-03-22T08:39:39;32.37;;;19.20;;
13564;SDS011;6854;48.096;11.278;2024-03-22T08:45:50;25.80;;;15.90;;
13564;SDS011;6854;48.096;11.278;2024-03-22T08:54:28;18.43;;;11.27;;
13564;SDS011;6854;48.096;11.278;2024-03-22T09:30:46;12.10;;;5.87;;
13564;SDS011;6854;48.096;11.278;2024-03-22T09:49:17;9.60;;;5.17;;
13564;SDS011;6854;48.096;11.278;2024-03-22T09:58:47;7.73;;;4.60;;
13564;SDS011;6854;48.096;11.278;2024-03-22T10:01:52;10.10;;;5.73;;
13564;SDS011;6854;48.096;11.278;2024-03-22T10:05:07;8.43;;;4.50;;
13564;SDS011;6854;48.096;11.278;2024-03-22T10:14:10;14.90;;;5.90;;
13564;SDS011;6854;48.096;11.278;2024-03-22T10:48:21;6.60;;;4.20;;
13564;SDS011;6854;48.096;11.278;2024-03-22T10:50:50;23.63;;;11.70;;
13564;SDS011;6854;48.096;11.278;2024-03-22T11:03:21;7.63;;;4.63;;
13564;SDS011;6854;48.096;11.278;2024-03-22T11:40:33;9.73;;;5.10;;
13564;SDS011;6854;48.096;11.278;2024-03-22T11:52:53;9.87;;;5.00;;
13564;SDS011;6854;48.096;11.278;2024-03-22T12:07:46;7.63;;;4.10;;
13564;SDS011;6854;48.096;11.278;2024-03-22T12:29:19;11.00;;;6.00;;
13564;SDS011;6854;48.096;11.278;2024-03-22T12:31:52;8.68;;;4.00;;
13564;SDS011;6854;48.096;11.278;2024-03-22T12:34:57;8.47;;;5.10;;
13564;SDS011;6854;48.096;11.278;2024-03-22T12:50:14;8.10;;;4.90;;
13564;SDS011;6854;48.096;11.278;2024-03-22T12:56:09;8.98;;;3.65;;
13564;SDS011;6854;48.096;11.278;2024-03-22T12:58:43;7.20;;;4.37;;
13564;SDS011;6854;48.096;11.278;2024-03-22T13:01:27;8.40;;;4.27;;
13564;SDS011;6854;48.096;11.278;2024-03-22T13:03:57;7.67;;;4.50;;
13564;SDS011;6854;48.096;11.278;2024-03-22T13:09:35;5.95;;;3.70;;
13564;SDS011;6854;48.096;11.278;2024-03-22T13:12:01;5.57;;;4.00;;
13564;SDS011;6854;48.096;11.278;2024-03-22T13:17:43;9.10;;;4.20;;
13564;SDS011;6854;48.096;11.278;2024-03-22T13:20:19;5.97;;;3.75;;
13564;SDS011;6854;48.096;11.278;2024-03-22T13:23:02;7.35;;;4.13;;
13564;SDS011;6854;48.096;11.278;2024-03-22T13:26:17;5.65;;;3.28;;
13564;SDS011;6854;48.096;11.278;2024-03-22T13:32:22;8.27;;;3.53;;
13564;SDS011;6854;48.096;11.278;2024-03-22T13:41:10;6.47;;;3.17;;
13564;SDS011;6854;48.096;11.278;2024-03-22T13:43:54;5.55;;;3.10;;
13564;SDS011;6854;48.096;11.278;2024-03-22T13:46:39;4.65;;;2.40;;
13564;SDS011;6854;48.096;11.278;2024-03-22T13:49:27;3.70;;;1.90;;
13564;SDS011;6854;48.096;11.278;2024-03-22T13:52:22;3.63;;;1.60;;
13564;SDS011;6854;48.096;11.278;2024-03-22T13:55:27;2.97;;;1.75;;
13564;SDS011;6854;48.096;11.278;2024-03-22T13:57:58;2.97;;;1.23;;
13564;SDS011;6854;48.096;11.278;2024-03-22T14:00:27;3.67;;;1.42;;
13564;SDS011;6854;48.096;11.278;2024-03-22T14:03:16;4.43;;;1.80;;
13564;SDS011;6854;48.096;11.278;2024-03-22T14:06:16;3.70;;;1.80;;
13564;SDS011;6854;48.096;11.278;2024-03-22T14:18:09;3.35;;;1.60;;
13564;SDS011;6854;48.096;11.278;2024-03-22T14:23:53;3.17;;;1.80;;
13564;SDS011;6854;48.096;11.278;2024-03-22T14:26:51;3.55;;;1.58;;
13564;SDS011;6854;48.096;11.278;2024-03-22T14:29:18;5.93;;;1.73;;
13564;SDS011;6854;48.096;11.278;2024-03-22T14:32:12;5.68;;;1.67;;
13564;SDS011;6854;48.096;11.278;2024-03-22T14:34:41;6.47;;;1.80;;
13564;SDS011;6854;48.096;11.278;2024-03-22T14:37:09;3.63;;;1.90;;
13564;SDS011;6854;48.096;11.278;2024-03-22T14:39:47;4.67;;;1.93;;
13564;SDS011;6854;48.096;11.278;2024-03-22T14:42:14;5.80;;;1.85;;
13564;SDS011;6854;48.096;11.278;2024-03-22T14:48:32;3.50;;;1.60;;
13564;SDS011;6854;48.096;11.278;2024-03-22T14:51:52;3.33;;;1.50;;
13564;SDS011;6854;48.096;11.278;2024-03-22T14:58:08;3.60;;;1.20;;
13564;SDS011;6854;48.096;11.278;2024-03-22T15:01:03;4.63;;;1.60;;
13564;SDS011;6854;48.096;11.278;2024-03-22T15:04:01;3.60;;;1.40;;
13564;SDS011;6854;48.096;11.278;2024-03-22T15:06:52;3.00;;;1.40;;
13564;SDS011;6854;48.096;11.278;2024-03-22T15:09:40;4.93;;;1.57;;
13564;SDS011;6854;48.096;11.278;2024-03-22T15:12:10;4.18;;;1.60;;
13564;SDS011;6854;48.096;11.278;2024-03-22T15:14:42;3.75;;;1.48;;
13564;SDS011;6854;48.096;11.278;2024-03-22T15:17:21;3.88;;;1.50;;
13564;SDS011;6854;48.096;11.278;2024-03-22T15:19:51;3.78;;;1.58;;
13564;SDS011;6854;48.096;11.278;2024-03-22T15:22:23;5.22;;;1.67;;
13564;SDS011;6854;48.096;11.278;2024-03-22T15:25:01;3.63;;;1.50;;
13564;SDS011;6854;48.096;11.278;2024-03-22T15:27:27;7.38;;;1.88;;
13564;SDS011;6854;48.096;11.278;2024-03-22T15:29:53;5.90;;;1.60;;
13564;SDS011;6854;48.096;11.278;2024-03-22T15:32:19;2.73;;;1.30;;
13564;SDS011;6854;48.096;11.278;2024-03-22T15:34:47;3.80;;;1.80;;
13564;SDS011;6854;48.096;11.278;2024-03-22T15:37:14;5.20;;;1.60;;
13564;SDS011;6854;48.096;11.278;2024-03-22T15:39:40;7.40;;;2.40;;
13564;SDS011;6854;48.096;11.278;2024-03-22T15:42:06;2.57;;;1.00;;
13564;SDS011;6854;48.096;11.278;2024-03-22T15:44:32;4.50;;;1.50;;
13564;SDS011;6854;48.096;11.278;2024-03-22T15:46:58;3.57;;;1.30;;
13564;SDS011;6854;48.096;11.278;2024-03-22T15:49:26;4.33;;;1.57;;
13564;SDS011;6854;48.096;11.278;2024-03-22T15:51:52;3.77;;;1.53;;
13564;SDS011;6854;48.096;11.278;2024-03-22T15:54:18;3.67;;;1.37;;
13564;SDS011;6854;48.096;11.278;2024-03-22T15:56:44;3.83;;;1.40;;
13564;SDS011;6854;48.096;11.278;2024-03-22T15:59:10;2.80;;;1.20;;
13564;SDS011;6854;48.096;11.278;2024-03-22T16:01:36;3.40;;;1.60;;
13564;SDS011;6854;48.096;11.278;2024-03-22T16:04:02;3.10;;;1.40;;
13564;SDS011;6854;48.096;11.278;2024-03-22T16:06:29;3.70;;;1.93;;
13564;SDS011;6854;48.096;11.278;2024-03-22T16:08:55;5.27;;;1.97;;
13564;SDS011;6854;48.096;11.278;2024-03-22T16:11:21;4.13;;;2.03;;
13564;SDS011;6854;48.096;11.278;2024-03-22T16:13:47;3.63;;;1.50;;
13564;SDS011;6854;48.096;11.278;2024-03-22T16:16:13;7.63;;;1.70;;
13564;SDS011;6854;48.096;11.278;2024-03-22T16:18:41;4.10;;;1.70;;
13564;SDS011;6854;48.096;11.278;2024-03-22T16:21:07;3.30;;;1.58;;
13564;SDS011;6854;48.096;11.278;2024-03-22T16:23:33;3.42;;;1.58;;
13564;SDS011;6854;48.096;11.278;2024-03-22T16:25:59;3.38;;;1.73;;
13564;SDS011;6854;48.096;11.278;2024-03-22T16:28:25;4.95;;;2.78;;
13564;SDS011;6854;48.096;11.278;2024-03-22T16:30:53;3.33;;;1.60;;
13564;SDS011;6854;48.096;11.278;2024-03-22T16:33:19;3.37;;;1.60;;
13564;SDS011;6854;48.096;11.278;2024-03-22T16:35:46;7.63;;;1.77;;
13564;SDS011;6854;48.096;11.278;2024-03-22T16:38:13;3.20;;;1.70;;
13564;SDS011;6854;48.096;11.278;2024-03-22T16:40:39;5.40;;;2.43;;
13564;SDS011;6854;48.096;11.278;2024-03-22T16:43:05;5.80;;;2.03;;
13564;SDS011;6854;48.096;11.278;2024-03-22T16:45:31;4.43;;;2.00;;
13564;SDS011;6854;48.096;11.278;2024-03-22T16:47:57;3.03;;;1.70;;
13564;SDS011;6854;48.096;11.278;2024-03-22T16:50:24;3.33;;;1.60;;
13564;SDS011;6854;48.096;11.278;2024-03-22T16:52:50;3.10;;;1.30;;
13564;SDS011;6854;48.096;11.278;2024-03-22T16:55:16;3.47;;;1.57;;
13564;SDS011;6854;48.096;11.278;2024-03-22T17:01:12;6.03;;;1.47;;
13564;SDS011;6854;48.096;11.278;2024-03-22T17:04:17;18.83;;;1.87;;
13564;SDS011;6854;48.096;11.278;2024-03-22T17:13:29;5.10;;;1.20;;
13564;SDS011;6854;48.096;11.278;2024-03-22T17:26:09;14.73;;;1.80;;
13564;SDS011;6854;48.096;11.278;2024-03-22T17:50:25;5.13;;;2.27;;
13564;SDS011;6854;48.096;11.278;2024-03-22T18:02:53;4.93;;;2.03;;
13564;SDS011;6854;48.096;11.278;2024-03-22T18:05:58;8.43;;;2.60;;
13564;SDS011;6854;48.096;11.278;2024-03-22T18:08:31;11.30;;;2.67;;
13564;SDS011;6854;48.096;11.278;2024-03-22T18:10:58;5.40;;;2.30;;
13564;SDS011;6854;48.096;11.278;2024-03-22T18:13:24;3.80;;;2.20;;
13564;SDS011;6854;48.096;11.278;2024-03-22T18:15:54;24.93;;;2.87;;
13564;SDS011;6854;48.096;11.278;2024-03-22T18:18:20;7.50;;;2.83;;
13564;SDS011;6854;48.096;11.278;2024-03-22T18:20:46;5.20;;;2.33;;
13564;SDS011;6854;48.096;11.278;2024-03-22T18:23:14;6.03;;;2.20;;
13564;SDS011;6854;48.096;11.278;2024-03-22T18:25:44;11.70;;;3.10;;
13564;SDS011;6854;48.096;11.278;2024-03-22T18:28:12;14.03;;;3.57;;
13564;SDS011;6854;48.096;11.278;2024-03-22T18:30:38;4.87;;;2.90;;
13564;SDS011;6854;48.096;11.278;2024-03-22T18:33:07;5.67;;;2.83;;
13564;SDS011;6854;48.096;11.278;2024-03-22T18:35:33;10.30;;;3.20;;
13564;SDS011;6854;48.096;11.278;2024-03-22T18:37:59;12.97;;;3.53;;
13564;SDS011;6854;48.096;11.278;2024-03-22T18:40:25;17.70;;;2.60;;
13564;SDS011;6854;48.096;11.278;2024-03-22T18:42:51;4.80;;;2.57;;
13564;SDS011;6854;48.096;11.278;2024-03-22T18:45:17;5.37;;;2.20;;
13564;SDS011;6854;48.096;11.278;2024-03-22T18:47:43;4.47;;;3.00;;
13564;SDS011;6854;48.096;11.278;2024-03-22T18:50:12;4.50;;;2.60;;
13564;SDS011;6854;48.096;11.278;2024-03-22T18:52:40;10.53;;;2.93;;
13564;SDS011;6854;48.096;11.278;2024-03-22T18:55:07;11.77;;;3.73;;
13564;SDS011;6854;48.096;11.278;2024-03-22T18:57:33;6.43;;;2.97;;
13564;SDS011;6854;48.096;11.278;2024-03-22T18:59:59;8.70;;;3.10;;
13564;SDS011;6854;48.096;11.278;2024-03-22T19:02:34;5.30;;;3.40;;
13564;SDS011;6854;48.096;11.278;2024-03-22T19:05:01;10.53;;;3.70;;
13564;SDS011;6854;48.096;11.278;2024-03-22T19:07:27;6.70;;;3.83;;
13564;SDS011;6854;48.096;11.278;2024-03-22T19:09:53;7.00;;;4.03;;
13564;SDS011;6854;48.096;11.278;2024-03-22T19:12:20;6.80;;;3.77;;
13564;SDS011;6854;48.096;11.278;2024-03-22T19:14:47;9.50;;;4.10;;
13564;SDS011;6854;48.096;11.278;2024-03-22T19:17:13;7.40;;;3.80;;
13564;SDS011;6854;48.096;11.278;2024-03-22T19:19:39;8.80;;;4.07;;
13564;SDS011;6854;48.096;11.278;2024-03-22T19:22:05;6.93;;;3.90;;
13564;SDS011;6854;48.096;11.278;2024-03-22T19:24:31;7.73;;;4.50;;
13564;SDS011;6854;48.096;11.278;2024-03-22T19:26:58;10.60;;;4.23;;
13564;SDS011;6854;48.096;11.278;2024-03-22T19:29:24;10.57;;;4.73;;
13564;SDS011;6854;48.096;11.278;2024-03-22T19:31:51;8.97;;;4.80;;
13564;SDS011;6854;48.096;11.278;2024-03-22T19:34:18;7.30;;;5.13;;
13564;SDS011;6854;48.096;11.278;2024-03-22T19:36:44;13.13;;;5.70;;
13564;SDS011;6854;48.096;11.278;2024-03-22T19:39:10;9.33;;;5.43;;
13564;SDS011;6854;48.096;11.278;2024-03-22T19:41:36;10.67;;;6.13;;
13564;SDS011;6854;48.096;11.278;2024-03-22T19:44:03;13.33;;;6.00;;
13564;SDS011;6854;48.096;11.278;2024-03-22T19:46:29;14.43;;;5.37;;
13564;SDS011;6854;48.096;11.278;2024-03-22T19:48:55;8.60;;;4.93;;
13564;SDS011;6854;48.096;11.278;2024-03-22T19:51:22;31.93;;;7.80;;
13564;SDS011;6854;48.096;11.278;2024-03-22T19:53:49;10.10;;;4.90;;
13564;SDS011;6854;48.096;11.278;2024-03-22T19:56:15;11.57;;;5.60;;
13564;SDS011;6854;48.096;11.278;2024-03-22T19:58:41;21.87;;;5.27;;
13564;SDS011;6854;48.096;11.278;2024-03-22T20:01:08;9.50;;;4.47;;
13564;SDS011;6854;48.096;11.278;2024-03-22T20:03:35;9.60;;;4.80;;
13564;SDS011;6854;48.096;11.278;2024-03-22T20:06:01;10.07;;;5.57;;
13564;SDS011;6854;48.096;11.278;2024-03-22T20:08:27;7.83;;;4.60;;
13564;SDS011;6854;48.096;11.278;2024-03-22T20:10:56;11.30;;;5.03;;
13564;SDS011;6854;48.096;11.278;2024-03-22T20:13:25;9.40;;;5.00;;
13564;SDS011;6854;48.096;11.278;2024-03-22T20:15:51;7.53;;;4.93;;
13564;SDS011;6854;48.096;11.278;2024-03-22T20:18:18;11.20;;;5.60;;
13564;SDS011;6854;48.096;11.278;2024-03-22T20:20:45;10.30;;;6.10;;
13564;SDS011;6854;48.096;11.278;2024-03-22T20:23:13;13.20;;;6.43;;
13564;SDS011;6854;48.096;11.278;2024-03-22T20:25:39;12.90;;;5.80;;
13564;SDS011;6854;48.096;11.278;2024-03-22T20:28:05;10.30;;;6.33;;
13564;SDS011;6854;48.096;11.278;2024-03-22T20:30:32;10.80;;;5.80;;
13564;SDS011;6854;48.096;11.278;2024-03-22T20:32:59;29.10;;;7.40;;
13564;SDS011;6854;48.096;11.278;2024-03-22T20:35:25;9.43;;;5.90;;
